<?xml version="1.0" encoding="UTF-8" standalone="no" ?>
<gpx xmlns="http://www.topografix.com/GPX/1/1" xmlns:xsi="http://www.w3.org/2001/XMLSchema-instance" xsi:schemaLocation="http://www.topografix.com/GPX/1/1 http://www.topografix.com/GPX/1/1/gpx.xsd" version="1.1" creator="VisuGPX - https://www.visugpx.com">
  <metadata>
    <name>GTA Raids 1+2+3</name>
    <desc><![CDATA[#GTA]]></desc>
  </metadata>
  <trk>
    <name><![CDATA[GTA 02A - De Sospel à Moulinet]]></name>
    <extensions>
      <line xmlns="http://www.topografix.com/GPX/gpx_style/0/2">
        <color>0000FF</color>
        <width>4</width>
      </line>
    </extensions>
    <trkseg>
      <trkpt lat="43.8776" lon="7.44846">
        <ele>353.398259</ele>
        <time>2022-10-18T16:56:20.768Z</time>
      </trkpt>
      <trkpt lat="43.87742" lon="7.44828">
        <ele>353.398259</ele>
        <time>2022-10-18T16:56:47.800Z</time>
      </trkpt>
      <trkpt lat="43.87727" lon="7.44804">
        <ele>353.398259</ele>
        <time>2022-10-18T16:57:15.122Z</time>
      </trkpt>
      <trkpt lat="43.87734" lon="7.44774">
        <ele>353.398259</ele>
        <time>2022-10-18T16:57:42.580Z</time>
      </trkpt>
      <trkpt lat="43.87753" lon="7.44784">
        <ele>353.398259</ele>
        <time>2022-10-18T16:58:06.877Z</time>
      </trkpt>
      <trkpt lat="43.87754" lon="7.44776">
        <ele>353.445074</ele>
        <time>2022-10-18T16:58:13.997Z</time>
      </trkpt>
      <trkpt lat="43.87756" lon="7.44762">
        <ele>353.571819</ele>
        <time>2022-10-18T16:58:27.054Z</time>
      </trkpt>
      <trkpt lat="43.87759" lon="7.44747">
        <ele>353.701075</ele>
        <time>2022-10-18T16:58:40.265Z</time>
      </trkpt>
      <trkpt lat="43.87774" lon="7.44744">
        <ele>353.886402</ele>
        <time>2022-10-18T16:58:59.086Z</time>
      </trkpt>
      <trkpt lat="43.87783" lon="7.44739">
        <ele>354.004368</ele>
        <time>2022-10-18T16:59:11.462Z</time>
      </trkpt>
      <trkpt lat="43.87796" lon="7.44732">
        <ele>354.174035</ele>
        <time>2022-10-18T16:59:29.196Z</time>
      </trkpt>
      <trkpt lat="43.87803" lon="7.44732">
        <ele>354.248896</ele>
        <time>2022-10-18T16:59:36.786Z</time>
      </trkpt>
      <trkpt lat="43.87843" lon="7.4474">
        <ele>354.746167</ele>
        <time>2022-10-18T17:00:28.845Z</time>
      </trkpt>
      <trkpt lat="43.87848" lon="7.44741">
        <ele>354.805545</ele>
        <time>2022-10-18T17:00:35.119Z</time>
      </trkpt>
      <trkpt lat="43.87853" lon="7.44718">
        <ele>355.012556</ele>
        <time>2022-10-18T17:00:56.427Z</time>
      </trkpt>
      <trkpt lat="43.87856" lon="7.44708">
        <ele>355.104084</ele>
        <time>2022-10-18T17:01:05.616Z</time>
      </trkpt>
      <trkpt lat="43.87879" lon="7.44666">
        <ele>355.567146</ele>
        <time>2022-10-18T17:01:54.411Z</time>
      </trkpt>
      <trkpt lat="43.87916" lon="7.44634">
        <ele>356.429502</ele>
        <time>2022-10-18T17:02:50.156Z</time>
      </trkpt>
      <trkpt lat="43.87949" lon="7.44595">
        <ele>357.304864</ele>
        <time>2022-10-18T17:03:47.577Z</time>
      </trkpt>
      <trkpt lat="43.87985" lon="7.44562">
        <ele>358.160377</ele>
        <time>2022-10-18T17:04:43.327Z</time>
      </trkpt>
      <trkpt lat="43.88004" lon="7.44535">
        <ele>358.698328</ele>
        <time>2022-10-18T17:05:18.055Z</time>
      </trkpt>
      <trkpt lat="43.88023" lon="7.44496">
        <ele>359.217705</ele>
        <time>2022-10-18T17:06:01.242Z</time>
      </trkpt>
      <trkpt lat="43.88042" lon="7.44434">
        <ele>359.465783</ele>
        <time>2022-10-18T17:07:01.666Z</time>
      </trkpt>
      <trkpt lat="43.88045" lon="7.44415">
        <ele>359.537109</ele>
        <time>2022-10-18T17:07:18.687Z</time>
      </trkpt>
      <trkpt lat="43.88034" lon="7.44251">
        <ele>360.077177</ele>
        <time>2022-10-18T17:09:41.363Z</time>
      </trkpt>
      <trkpt lat="43.88039" lon="7.44233">
        <ele>360.079108</ele>
        <time>2022-10-18T17:09:58.194Z</time>
      </trkpt>
      <trkpt lat="43.88057" lon="7.44208">
        <ele>360.082591</ele>
        <time>2022-10-18T17:10:28.567Z</time>
      </trkpt>
      <trkpt lat="43.88136" lon="7.44087">
        <ele>360.09895</ele>
        <time>2022-10-18T17:12:50.728Z</time>
      </trkpt>
      <trkpt lat="43.88186" lon="7.43978">
        <ele>360.217161</ele>
        <time>2022-10-18T17:14:42.241Z</time>
      </trkpt>
      <trkpt lat="43.88222" lon="7.43945">
        <ele>360.278763</ele>
        <time>2022-10-18T17:15:34.935Z</time>
      </trkpt>
      <trkpt lat="43.88281" lon="7.43867">
        <ele>360.509022</ele>
        <time>2022-10-18T17:17:13.157Z</time>
      </trkpt>
      <trkpt lat="43.88307" lon="7.43815">
        <ele>360.764653</ele>
        <time>2022-10-18T17:18:08.784Z</time>
      </trkpt>
      <trkpt lat="43.8834" lon="7.43729">
        <ele>361.158048</ele>
        <time>2022-10-18T17:19:34.906Z</time>
      </trkpt>
      <trkpt lat="43.88366" lon="7.43642">
        <ele>362.482327</ele>
        <time>2022-10-18T17:20:59.407Z</time>
      </trkpt>
      <trkpt lat="43.88397" lon="7.43575">
        <ele>364.487074</ele>
        <time>2022-10-18T17:22:10.172Z</time>
      </trkpt>
      <trkpt lat="43.88415" lon="7.43507">
        <ele>366.343295</ele>
        <time>2022-10-18T17:23:22.288Z</time>
      </trkpt>
      <trkpt lat="43.8845" lon="7.43433">
        <ele>370.215311</ele>
        <time>2022-10-18T17:24:58.480Z</time>
      </trkpt>
      <trkpt lat="43.88475" lon="7.43421">
        <ele>372.777278</ele>
        <time>2022-10-18T17:25:38.978Z</time>
      </trkpt>
      <trkpt lat="43.88515" lon="7.4342">
        <ele>376.814564</ele>
        <time>2022-10-18T17:26:44.922Z</time>
      </trkpt>
      <trkpt lat="43.88539" lon="7.43419">
        <ele>379.121448</ele>
        <time>2022-10-18T17:27:25.745Z</time>
      </trkpt>
      <trkpt lat="43.88612" lon="7.43385">
        <ele>386.441188</ele>
        <time>2022-10-18T17:29:32.496Z</time>
      </trkpt>
      <trkpt lat="43.88641" lon="7.43384">
        <ele>388.617301</ele>
        <time>2022-10-18T17:30:25.458Z</time>
      </trkpt>
      <trkpt lat="43.8865" lon="7.43391">
        <ele>389.347452</ele>
        <time>2022-10-18T17:30:39.444Z</time>
      </trkpt>
      <trkpt lat="43.88698" lon="7.43469">
        <ele>394.769596</ele>
        <time>2022-10-18T17:32:26.480Z</time>
      </trkpt>
      <trkpt lat="43.88717" lon="7.43481">
        <ele>396.318403</ele>
        <time>2022-10-18T17:32:55.131Z</time>
      </trkpt>
      <trkpt lat="43.88733" lon="7.43482">
        <ele>397.536261</ele>
        <time>2022-10-18T17:33:15.576Z</time>
      </trkpt>
      <trkpt lat="43.88749" lon="7.43469">
        <ele>398.854591</ele>
        <time>2022-10-18T17:33:54.042Z</time>
      </trkpt>
      <trkpt lat="43.88745" lon="7.43439">
        <ele>400.508588</ele>
        <time>2022-10-18T17:34:21.896Z</time>
      </trkpt>
      <trkpt lat="43.88706" lon="7.43396">
        <ele>404.214699</ele>
        <time>2022-10-18T17:35:40.014Z</time>
      </trkpt>
      <trkpt lat="43.88676" lon="7.43329">
        <ele>408.471059</ele>
        <time>2022-10-18T17:36:55.354Z</time>
      </trkpt>
      <trkpt lat="43.88687" lon="7.43317">
        <ele>409.479138</ele>
        <time>2022-10-18T17:37:29.144Z</time>
      </trkpt>
      <trkpt lat="43.88686" lon="7.43301">
        <ele>410.381969</ele>
        <time>2022-10-18T17:37:43.857Z</time>
      </trkpt>
      <trkpt lat="43.88699" lon="7.43276">
        <ele>412.02035</ele>
        <time>2022-10-18T17:38:18.584Z</time>
      </trkpt>
      <trkpt lat="43.88745" lon="7.43235">
        <ele>423.198741</ele>
        <time>2022-10-18T17:39:55.026Z</time>
      </trkpt>
      <trkpt lat="43.88776" lon="7.43289">
        <ele>433.704724</ele>
        <time>2022-10-18T17:42:16.197Z</time>
      </trkpt>
      <trkpt lat="43.88789" lon="7.4329">
        <ele>436.470682</ele>
        <time>2022-10-18T17:42:55.883Z</time>
      </trkpt>
      <trkpt lat="43.88794" lon="7.43271">
        <ele>439.453442</ele>
        <time>2022-10-18T17:43:26.600Z</time>
      </trkpt>
      <trkpt lat="43.88804" lon="7.43275">
        <ele>441.53966</ele>
        <time>2022-10-18T17:43:58.071Z</time>
      </trkpt>
      <trkpt lat="43.88834" lon="7.43261">
        <ele>448.256101</ele>
        <time>2022-10-18T17:45:24.758Z</time>
      </trkpt>
      <trkpt lat="43.88866" lon="7.43269">
        <ele>455.807781</ele>
        <time>2022-10-18T17:46:50.496Z</time>
      </trkpt>
      <trkpt lat="43.88877" lon="7.43267">
        <ele>458.465619</ele>
        <time>2022-10-18T17:47:29.226Z</time>
      </trkpt>
      <trkpt lat="43.88894" lon="7.43263">
        <ele>462.588656</ele>
        <time>2022-10-18T17:48:06.809Z</time>
      </trkpt>
      <trkpt lat="43.8891" lon="7.43222">
        <ele>470.669398</ele>
        <time>2022-10-18T17:49:37.318Z</time>
      </trkpt>
      <trkpt lat="43.88918" lon="7.43213">
        <ele>473.153699</ele>
        <time>2022-10-18T17:50:02.820Z</time>
      </trkpt>
      <trkpt lat="43.88949" lon="7.43182">
        <ele>482.31796</ele>
        <time>2022-10-18T17:51:45.251Z</time>
      </trkpt>
      <trkpt lat="43.88967" lon="7.43179">
        <ele>486.736026</ele>
        <time>2022-10-18T17:52:38.107Z</time>
      </trkpt>
      <trkpt lat="43.88982" lon="7.43158">
        <ele>491.918713</ele>
        <time>2022-10-18T17:53:36.852Z</time>
      </trkpt>
      <trkpt lat="43.88972" lon="7.43113">
        <ele>498.440741</ele>
        <time>2022-10-18T17:55:03.234Z</time>
      </trkpt>
      <trkpt lat="43.88978" lon="7.43104">
        <ele>499.912098</ele>
        <time>2022-10-18T17:55:22.169Z</time>
      </trkpt>
      <trkpt lat="43.89004" lon="7.43031">
        <ele>510.547159</ele>
        <time>2022-10-18T17:57:22.500Z</time>
      </trkpt>
      <trkpt lat="43.8902" lon="7.43017">
        <ele>514.076483</ele>
        <time>2022-10-18T17:58:04.847Z</time>
      </trkpt>
      <trkpt lat="43.89055" lon="7.43032">
        <ele>520.69953</ele>
        <time>2022-10-18T17:59:16.636Z</time>
      </trkpt>
      <trkpt lat="43.89075" lon="7.42982">
        <ele>528.285825</ele>
        <time>2022-10-18T18:00:40.795Z</time>
      </trkpt>
      <trkpt lat="43.89104" lon="7.42937">
        <ele>536.399175</ele>
        <time>2022-10-18T18:02:15.771Z</time>
      </trkpt>
      <trkpt lat="43.89136" lon="7.42902">
        <ele>543.832622</ele>
        <time>2022-10-18T18:04:04.489Z</time>
      </trkpt>
      <trkpt lat="43.8923" lon="7.42875">
        <ele>560.709141</ele>
        <time>2022-10-18T18:07:33.549Z</time>
      </trkpt>
      <trkpt lat="43.89244" lon="7.42874">
        <ele>562.312361</ele>
        <time>2022-10-18T18:08:03.958Z</time>
      </trkpt>
      <trkpt lat="43.8927" lon="7.42887">
        <ele>565.306818</ele>
        <time>2022-10-18T18:08:55.314Z</time>
      </trkpt>
      <trkpt lat="43.8928" lon="7.42891">
        <ele>566.465965</ele>
        <time>2022-10-18T18:09:14.543Z</time>
      </trkpt>
      <trkpt lat="43.89291" lon="7.42888">
        <ele>567.779819</ele>
        <time>2022-10-18T18:09:33.810Z</time>
      </trkpt>
      <trkpt lat="43.89318" lon="7.42871">
        <ele>571.046979</ele>
        <time>2022-10-18T18:10:23.371Z</time>
      </trkpt>
      <trkpt lat="43.89334" lon="7.42846">
        <ele>573.643833</ele>
        <time>2022-10-18T18:11:01.531Z</time>
      </trkpt>
      <trkpt lat="43.89352" lon="7.42782">
        <ele>579.16069</ele>
        <time>2022-10-18T18:12:16.859Z</time>
      </trkpt>
      <trkpt lat="43.89354" lon="7.42742">
        <ele>578.871716</ele>
        <time>2022-10-18T18:12:56.953Z</time>
      </trkpt>
      <trkpt lat="43.8936" lon="7.42722">
        <ele>578.641211</ele>
        <time>2022-10-18T18:13:16.353Z</time>
      </trkpt>
      <trkpt lat="43.89373" lon="7.42704">
        <ele>578.373306</ele>
        <time>2022-10-18T18:13:38.717Z</time>
      </trkpt>
      <trkpt lat="43.89414" lon="7.42669">
        <ele>577.675012</ele>
        <time>2022-10-18T18:14:41.552Z</time>
      </trkpt>
      <trkpt lat="43.89443" lon="7.42653">
        <ele>577.211201</ele>
        <time>2022-10-18T18:15:22.545Z</time>
      </trkpt>
      <trkpt lat="43.89487" lon="7.42633">
        <ele>575.974367</ele>
        <time>2022-10-18T18:16:22.223Z</time>
      </trkpt>
      <trkpt lat="43.89504" lon="7.42638">
        <ele>574.329216</ele>
        <time>2022-10-18T18:16:45.369Z</time>
      </trkpt>
      <trkpt lat="43.89547" lon="7.42656">
        <ele>570.214209</ele>
        <time>2022-10-18T18:17:46.115Z</time>
      </trkpt>
      <trkpt lat="43.8957" lon="7.4266">
        <ele>568.163156</ele>
        <time>2022-10-18T18:18:15.506Z</time>
      </trkpt>
      <trkpt lat="43.89576" lon="7.42654">
        <ele>567.466005</ele>
        <time>2022-10-18T18:18:26.695Z</time>
      </trkpt>
      <trkpt lat="43.89576" lon="7.42643">
        <ele>566.74108</ele>
        <time>2022-10-18T18:18:38.983Z</time>
      </trkpt>
      <trkpt lat="43.8957" lon="7.42636">
        <ele>566.011555</ele>
        <time>2022-10-18T18:18:50.258Z</time>
      </trkpt>
      <trkpt lat="43.89528" lon="7.42625">
        <ele>562.105122</ele>
        <time>2022-10-18T18:19:55.414Z</time>
      </trkpt>
      <trkpt lat="43.89518" lon="7.42612">
        <ele>560.843324</ele>
        <time>2022-10-18T18:20:16.799Z</time>
      </trkpt>
      <trkpt lat="43.89508" lon="7.42577">
        <ele>557.422559</ele>
        <time>2022-10-18T18:20:58.768Z</time>
      </trkpt>
      <trkpt lat="43.89497" lon="7.42568">
        <ele>555.668912</ele>
        <time>2022-10-18T18:21:19.461Z</time>
      </trkpt>
      <trkpt lat="43.89476" lon="7.42561">
        <ele>552.611162</ele>
        <time>2022-10-18T18:21:51.591Z</time>
      </trkpt>
      <trkpt lat="43.89416" lon="7.42564">
        <ele>544.306356</ele>
        <time>2022-10-18T18:23:24.037Z</time>
      </trkpt>
      <trkpt lat="43.89369" lon="7.42598">
        <ele>537.051823</ele>
        <time>2022-10-18T18:24:42.114Z</time>
      </trkpt>
      <trkpt lat="43.89326" lon="7.42615">
        <ele>532.668217</ele>
        <time>2022-10-18T18:25:51.128Z</time>
      </trkpt>
      <trkpt lat="43.89321" lon="7.4261">
        <ele>532.120637</ele>
        <time>2022-10-18T18:26:02.829Z</time>
      </trkpt>
      <trkpt lat="43.89368" lon="7.42556">
        <ele>527.016118</ele>
        <time>2022-10-18T18:27:31.148Z</time>
      </trkpt>
      <trkpt lat="43.89392" lon="7.42516">
        <ele>523.946664</ele>
        <time>2022-10-18T18:28:18.983Z</time>
      </trkpt>
      <trkpt lat="43.89433" lon="7.4248">
        <ele>520.234171</ele>
        <time>2022-10-18T18:29:20.367Z</time>
      </trkpt>
      <trkpt lat="43.89445" lon="7.42455">
        <ele>519.676182</ele>
        <time>2022-10-18T18:29:48.840Z</time>
      </trkpt>
      <trkpt lat="43.89456" lon="7.42446">
        <ele>519.334562</ele>
        <time>2022-10-18T18:30:05.541Z</time>
      </trkpt>
      <trkpt lat="43.89468" lon="7.42442">
        <ele>519.015715</ele>
        <time>2022-10-18T18:30:23.001Z</time>
      </trkpt>
      <trkpt lat="43.89489" lon="7.42456">
        <ele>518.396859</ele>
        <time>2022-10-18T18:30:52.095Z</time>
      </trkpt>
      <trkpt lat="43.89497" lon="7.42455">
        <ele>518.184997</ele>
        <time>2022-10-18T18:31:03.757Z</time>
      </trkpt>
      <trkpt lat="43.89514" lon="7.42483">
        <ele>517.488228</ele>
        <time>2022-10-18T18:31:36.650Z</time>
      </trkpt>
      <trkpt lat="43.89525" lon="7.425">
        <ele>517.066415</ele>
        <time>2022-10-18T18:31:58.802Z</time>
      </trkpt>
      <trkpt lat="43.89541" lon="7.425">
        <ele>516.641784</ele>
        <time>2022-10-18T18:32:19.793Z</time>
      </trkpt>
      <trkpt lat="43.89545" lon="7.42496">
        <ele>516.51337</ele>
        <time>2022-10-18T18:32:25.698Z</time>
      </trkpt>
      <trkpt lat="43.89551" lon="7.42479">
        <ele>516.155821</ele>
        <time>2022-10-18T18:32:44.046Z</time>
      </trkpt>
      <trkpt lat="43.89552" lon="7.42452">
        <ele>515.53641</ele>
        <time>2022-10-18T18:33:12.840Z</time>
      </trkpt>
      <trkpt lat="43.89589" lon="7.42394">
        <ele>511.80771</ele>
        <time>2022-10-18T18:34:19.317Z</time>
      </trkpt>
      <trkpt lat="43.89612" lon="7.42334">
        <ele>508.511108</ele>
        <time>2022-10-18T18:35:20.493Z</time>
      </trkpt>
      <trkpt lat="43.89633" lon="7.42317">
        <ele>506.809762</ele>
        <time>2022-10-18T18:35:59.725Z</time>
      </trkpt>
      <trkpt lat="43.89691" lon="7.42302">
        <ele>500.821737</ele>
        <time>2022-10-18T18:37:24.249Z</time>
      </trkpt>
      <trkpt lat="43.89701" lon="7.42294">
        <ele>497.95095</ele>
        <time>2022-10-18T18:37:48.434Z</time>
      </trkpt>
      <trkpt lat="43.89703" lon="7.42285">
        <ele>496.316197</ele>
        <time>2022-10-18T18:37:57.821Z</time>
      </trkpt>
      <trkpt lat="43.89656" lon="7.42146">
        <ele>468.007893</ele>
        <time>2022-10-18T18:41:49.061Z</time>
      </trkpt>
      <trkpt lat="43.89616" lon="7.42093">
        <ele>454.234403</ele>
        <time>2022-10-18T18:43:58.500Z</time>
      </trkpt>
      <trkpt lat="43.8953" lon="7.42033">
        <ele>431.375237</ele>
        <time>2022-10-18T18:47:26.105Z</time>
      </trkpt>
      <trkpt lat="43.89515" lon="7.42016">
        <ele>426.692671</ele>
        <time>2022-10-18T18:48:03.504Z</time>
      </trkpt>
      <trkpt lat="43.89502" lon="7.41979">
        <ele>419.654535</ele>
        <time>2022-10-18T18:48:52.709Z</time>
      </trkpt>
      <trkpt lat="43.89478" lon="7.41935">
        <ele>414.502945</ele>
        <time>2022-10-18T18:49:48.161Z</time>
      </trkpt>
      <trkpt lat="43.8946" lon="7.41946">
        <ele>413.983813</ele>
        <time>2022-10-18T18:50:15.376Z</time>
      </trkpt>
      <trkpt lat="43.89411" lon="7.4198">
        <ele>412.46758</ele>
        <time>2022-10-18T18:51:26.233Z</time>
      </trkpt>
      <trkpt lat="43.89399" lon="7.41947">
        <ele>411.738104</ele>
        <time>2022-10-18T18:51:58.663Z</time>
      </trkpt>
      <trkpt lat="43.89407" lon="7.41921">
        <ele>411.186311</ele>
        <time>2022-10-18T18:52:23.534Z</time>
      </trkpt>
      <trkpt lat="43.89373" lon="7.4194">
        <ele>410.179636</ele>
        <time>2022-10-18T18:53:12.410Z</time>
      </trkpt>
      <trkpt lat="43.89355" lon="7.41956">
        <ele>412.39411</ele>
        <time>2022-10-18T18:53:44.005Z</time>
      </trkpt>
      <trkpt lat="43.89341" lon="7.41957">
        <ele>414.098046</ele>
        <time>2022-10-18T18:54:03.353Z</time>
      </trkpt>
      <trkpt lat="43.8933" lon="7.41952">
        <ele>415.460104</ele>
        <time>2022-10-18T18:54:24.513Z</time>
      </trkpt>
      <trkpt lat="43.89329" lon="7.41902">
        <ele>419.676774</ele>
        <time>2022-10-18T18:55:21.746Z</time>
      </trkpt>
      <trkpt lat="43.89358" lon="7.41813">
        <ele>427.934735</ele>
        <time>2022-10-18T18:57:26.365Z</time>
      </trkpt>
      <trkpt lat="43.89344" lon="7.4178">
        <ele>431.144708</ele>
        <time>2022-10-18T18:58:20.029Z</time>
      </trkpt>
      <trkpt lat="43.89344" lon="7.4175">
        <ele>437.452558</ele>
        <time>2022-10-18T18:59:15.395Z</time>
      </trkpt>
      <trkpt lat="43.89354" lon="7.41719">
        <ele>444.635027</ele>
        <time>2022-10-18T19:00:22.282Z</time>
      </trkpt>
      <trkpt lat="43.89364" lon="7.41705">
        <ele>448.841987</ele>
        <time>2022-10-18T19:00:59.580Z</time>
      </trkpt>
      <trkpt lat="43.89382" lon="7.41555">
        <ele>480.818217</ele>
        <time>2022-10-18T19:06:59.824Z</time>
      </trkpt>
      <trkpt lat="43.89367" lon="7.41507">
        <ele>493.635971</ele>
        <time>2022-10-18T19:09:10.297Z</time>
      </trkpt>
      <trkpt lat="43.89348" lon="7.41471">
        <ele>505.121244</ele>
        <time>2022-10-18T19:11:01.103Z</time>
      </trkpt>
      <trkpt lat="43.89287" lon="7.41423">
        <ele>530.234112</ele>
        <time>2022-10-18T19:14:59.670Z</time>
      </trkpt>
      <trkpt lat="43.89284" lon="7.41385">
        <ele>540.013779</ele>
        <time>2022-10-18T19:16:35.139Z</time>
      </trkpt>
      <trkpt lat="43.89296" lon="7.41352">
        <ele>549.645405</ele>
        <time>2022-10-18T19:18:05.892Z</time>
      </trkpt>
      <trkpt lat="43.8931" lon="7.41355">
        <ele>555.740134</ele>
        <time>2022-10-18T19:18:59.516Z</time>
      </trkpt>
      <trkpt lat="43.89313" lon="7.41306">
        <ele>570.215265</ele>
        <time>2022-10-18T19:21:05.685Z</time>
      </trkpt>
      <trkpt lat="43.89326" lon="7.413">
        <ele>575.932398</ele>
        <time>2022-10-18T19:22:00.162Z</time>
      </trkpt>
      <trkpt lat="43.89347" lon="7.41244">
        <ele>594.256994</ele>
        <time>2022-10-18T19:24:51.295Z</time>
      </trkpt>
      <trkpt lat="43.8939" lon="7.4122">
        <ele>613.171654</ele>
        <time>2022-10-18T19:27:50.482Z</time>
      </trkpt>
      <trkpt lat="43.89391" lon="7.41192">
        <ele>621.328452</ele>
        <time>2022-10-18T19:29:14.393Z</time>
      </trkpt>
      <trkpt lat="43.89494" lon="7.41114">
        <ele>663.262099</ele>
        <time>2022-10-18T19:36:37.964Z</time>
      </trkpt>
      <trkpt lat="43.89489" lon="7.41097">
        <ele>668.0285</ele>
        <time>2022-10-18T19:37:20.284Z</time>
      </trkpt>
      <trkpt lat="43.89478" lon="7.41097">
        <ele>672.250445</ele>
        <time>2022-10-18T19:38:02.828Z</time>
      </trkpt>
      <trkpt lat="43.89448" lon="7.41048">
        <ele>687.047597</ele>
        <time>2022-10-18T19:40:01.512Z</time>
      </trkpt>
      <trkpt lat="43.89411" lon="7.41031">
        <ele>693.281262</ele>
        <time>2022-10-18T19:41:25.501Z</time>
      </trkpt>
      <trkpt lat="43.89435" lon="7.41024">
        <ele>697.271342</ele>
        <time>2022-10-18T19:42:12.836Z</time>
      </trkpt>
      <trkpt lat="43.89437" lon="7.41003">
        <ele>699.644846</ele>
        <time>2022-10-18T19:42:40.754Z</time>
      </trkpt>
      <trkpt lat="43.8945" lon="7.41001">
        <ele>701.785929</ele>
        <time>2022-10-18T19:43:02.007Z</time>
      </trkpt>
      <trkpt lat="43.89458" lon="7.40975">
        <ele>705.120712</ele>
        <time>2022-10-18T19:43:38.276Z</time>
      </trkpt>
      <trkpt lat="43.89432" lon="7.40957">
        <ele>709.829359</ele>
        <time>2022-10-18T19:44:29.214Z</time>
      </trkpt>
      <trkpt lat="43.89437" lon="7.40948">
        <ele>711.167256</ele>
        <time>2022-10-18T19:44:43.193Z</time>
      </trkpt>
      <trkpt lat="43.8941" lon="7.40936">
        <ele>715.972766</ele>
        <time>2022-10-18T19:45:35.835Z</time>
      </trkpt>
      <trkpt lat="43.89435" lon="7.40917">
        <ele>721.468454</ele>
        <time>2022-10-18T19:46:36.621Z</time>
      </trkpt>
      <trkpt lat="43.8944" lon="7.40895">
        <ele>724.651176</ele>
        <time>2022-10-18T19:47:14.969Z</time>
      </trkpt>
      <trkpt lat="43.89476" lon="7.40879">
        <ele>731.794485</ele>
        <time>2022-10-18T19:48:42.226Z</time>
      </trkpt>
      <trkpt lat="43.89544" lon="7.40816">
        <ele>747.265367</ele>
        <time>2022-10-18T19:52:04.853Z</time>
      </trkpt>
      <trkpt lat="43.89575" lon="7.40806">
        <ele>753.097273</ele>
        <time>2022-10-18T19:53:21.147Z</time>
      </trkpt>
      <trkpt lat="43.89654" lon="7.40838">
        <ele>768.088732</ele>
        <time>2022-10-18T19:56:25.597Z</time>
      </trkpt>
      <trkpt lat="43.89673" lon="7.40839">
        <ele>771.459035</ele>
        <time>2022-10-18T19:57:03.163Z</time>
      </trkpt>
      <trkpt lat="43.89693" lon="7.40828">
        <ele>775.508333</ele>
        <time>2022-10-18T19:57:50.903Z</time>
      </trkpt>
      <trkpt lat="43.8977" lon="7.40742">
        <ele>791.966935</ele>
        <time>2022-10-18T20:01:13.931Z</time>
      </trkpt>
      <trkpt lat="43.89905" lon="7.4069">
        <ele>813.417917</ele>
        <time>2022-10-18T20:05:58.041Z</time>
      </trkpt>
      <trkpt lat="43.89946" lon="7.40697">
        <ele>818.47395</ele>
        <time>2022-10-18T20:07:26.488Z</time>
      </trkpt>
      <trkpt lat="43.89986" lon="7.40682">
        <ele>823.479802</ele>
        <time>2022-10-18T20:08:43.839Z</time>
      </trkpt>
      <trkpt lat="43.90037" lon="7.40685">
        <ele>829.593323</ele>
        <time>2022-10-18T20:10:04.110Z</time>
      </trkpt>
      <trkpt lat="43.90141" lon="7.40671">
        <ele>833.715867</ele>
        <time>2022-10-18T20:12:26.734Z</time>
      </trkpt>
      <trkpt lat="43.90164" lon="7.40688">
        <ele>834.256386</ele>
        <time>2022-10-18T20:13:00.015Z</time>
      </trkpt>
      <trkpt lat="43.90169" lon="7.40686">
        <ele>834.365776</ele>
        <time>2022-10-18T20:13:06.749Z</time>
      </trkpt>
      <trkpt lat="43.902" lon="7.40671">
        <ele>835.050925</ele>
        <time>2022-10-18T20:13:46.784Z</time>
      </trkpt>
      <trkpt lat="43.90241" lon="7.40669">
        <ele>835.877233</ele>
        <time>2022-10-18T20:14:38.100Z</time>
      </trkpt>
      <trkpt lat="43.90252" lon="7.40658">
        <ele>836.123152</ele>
        <time>2022-10-18T20:14:55.483Z</time>
      </trkpt>
      <trkpt lat="43.90274" lon="7.40592">
        <ele>837.060896</ele>
        <time>2022-10-18T20:16:03.229Z</time>
      </trkpt>
      <trkpt lat="43.90255" lon="7.4046">
        <ele>838.820313</ele>
        <time>2022-10-18T20:18:11.810Z</time>
      </trkpt>
      <trkpt lat="43.90237" lon="7.40383">
        <ele>847.842033</ele>
        <time>2022-10-18T20:20:01.766Z</time>
      </trkpt>
      <trkpt lat="43.90225" lon="7.40374">
        <ele>850.25921</ele>
        <time>2022-10-18T20:20:20.528Z</time>
      </trkpt>
      <trkpt lat="43.90241" lon="7.40352">
        <ele>854.037129</ele>
        <time>2022-10-18T20:21:20.381Z</time>
      </trkpt>
      <trkpt lat="43.90223" lon="7.40311">
        <ele>859.909046</ele>
        <time>2022-10-18T20:22:29.908Z</time>
      </trkpt>
      <trkpt lat="43.90243" lon="7.40308">
        <ele>863.263447</ele>
        <time>2022-10-18T20:22:59.622Z</time>
      </trkpt>
      <trkpt lat="43.9023" lon="7.40274">
        <ele>867.897719</ele>
        <time>2022-10-18T20:24:08.223Z</time>
      </trkpt>
      <trkpt lat="43.90267" lon="7.40266">
        <ele>878.750548</ele>
        <time>2022-10-18T20:26:19.967Z</time>
      </trkpt>
      <trkpt lat="43.90322" lon="7.40319">
        <ele>900.398657</ele>
        <time>2022-10-18T20:30:28.319Z</time>
      </trkpt>
      <trkpt lat="43.9034" lon="7.40354">
        <ele>910.661325</ele>
        <time>2022-10-18T20:32:06.473Z</time>
      </trkpt>
      <trkpt lat="43.904" lon="7.4037">
        <ele>929.459368</ele>
        <time>2022-10-18T20:35:18.771Z</time>
      </trkpt>
      <trkpt lat="43.90467" lon="7.40316">
        <ele>943.413467</ele>
        <time>2022-10-18T20:38:48.901Z</time>
      </trkpt>
      <trkpt lat="43.90524" lon="7.40281">
        <ele>954.461376</ele>
        <time>2022-10-18T20:41:13.476Z</time>
      </trkpt>
      <trkpt lat="43.90572" lon="7.40215">
        <ele>959.6116</ele>
        <time>2022-10-18T20:42:39.809Z</time>
      </trkpt>
      <trkpt lat="43.90623" lon="7.40203">
        <ele>958.558703</ele>
        <time>2022-10-18T20:43:46.258Z</time>
      </trkpt>
      <trkpt lat="43.90694" lon="7.40166">
        <ele>957.016393</ele>
        <time>2022-10-18T20:45:24.611Z</time>
      </trkpt>
      <trkpt lat="43.90763" lon="7.40098">
        <ele>957.499284</ele>
        <time>2022-10-18T20:47:10.135Z</time>
      </trkpt>
      <trkpt lat="43.90817" lon="7.40056">
        <ele>958.26459</ele>
        <time>2022-10-18T20:48:25.876Z</time>
      </trkpt>
      <trkpt lat="43.90845" lon="7.4004">
        <ele>958.637674</ele>
        <time>2022-10-18T20:49:07.647Z</time>
      </trkpt>
      <trkpt lat="43.90867" lon="7.40046">
        <ele>959.125037</ele>
        <time>2022-10-18T20:49:39.008Z</time>
      </trkpt>
      <trkpt lat="43.90892" lon="7.40038">
        <ele>962.003442</ele>
        <time>2022-10-18T20:50:17.801Z</time>
      </trkpt>
      <trkpt lat="43.9092" lon="7.39994">
        <ele>966.691852</ele>
        <time>2022-10-18T20:51:24.914Z</time>
      </trkpt>
      <trkpt lat="43.90937" lon="7.39979">
        <ele>968.951349</ele>
        <time>2022-10-18T20:51:59.552Z</time>
      </trkpt>
      <trkpt lat="43.90941" lon="7.39966">
        <ele>970.087442</ele>
        <time>2022-10-18T20:52:16.821Z</time>
      </trkpt>
      <trkpt lat="43.9099" lon="7.39941">
        <ele>975.895001</ele>
        <time>2022-10-18T20:53:46.658Z</time>
      </trkpt>
      <trkpt lat="43.91041" lon="7.3992">
        <ele>983.21609</ele>
        <time>2022-10-18T20:55:39.169Z</time>
      </trkpt>
      <trkpt lat="43.91065" lon="7.39918">
        <ele>987.366161</ele>
        <time>2022-10-18T20:56:26.770Z</time>
      </trkpt>
      <trkpt lat="43.9114" lon="7.39911">
        <ele>999.917547</ele>
        <time>2022-10-18T20:59:08.460Z</time>
      </trkpt>
      <trkpt lat="43.91148" lon="7.39902">
        <ele>1001.661461</ele>
        <time>2022-10-18T20:59:37.041Z</time>
      </trkpt>
      <trkpt lat="43.91185" lon="7.39913">
        <ele>1007.873898</ele>
        <time>2022-10-18T21:00:54.894Z</time>
      </trkpt>
      <trkpt lat="43.91212" lon="7.39912">
        <ele>1011.478579</ele>
        <time>2022-10-18T21:01:46.112Z</time>
      </trkpt>
      <trkpt lat="43.9122" lon="7.39903">
        <ele>1012.738511</ele>
        <time>2022-10-18T21:02:11.445Z</time>
      </trkpt>
      <trkpt lat="43.91236" lon="7.39866">
        <ele>1016.536446</ele>
        <time>2022-10-18T21:03:14.123Z</time>
      </trkpt>
      <trkpt lat="43.91258" lon="7.3984">
        <ele>1020.049035</ele>
        <time>2022-10-18T21:04:06.992Z</time>
      </trkpt>
      <trkpt lat="43.91349" lon="7.39794">
        <ele>1030.917268</ele>
        <time>2022-10-18T21:06:42.439Z</time>
      </trkpt>
      <trkpt lat="43.91416" lon="7.39774">
        <ele>1031.37247</ele>
        <time>2022-10-18T21:08:14.108Z</time>
      </trkpt>
      <trkpt lat="43.91441" lon="7.39773">
        <ele>1031.539064</ele>
        <time>2022-10-18T21:08:44.832Z</time>
      </trkpt>
      <trkpt lat="43.91516" lon="7.39807">
        <ele>1032.04951</ele>
        <time>2022-10-18T21:10:25.325Z</time>
      </trkpt>
      <trkpt lat="43.91558" lon="7.39819">
        <ele>1030.849978</ele>
        <time>2022-10-18T21:11:22.732Z</time>
      </trkpt>
      <trkpt lat="43.91631" lon="7.39867">
        <ele>1028.653084</ele>
        <time>2022-10-18T21:13:05.155Z</time>
      </trkpt>
      <trkpt lat="43.91674" lon="7.39869">
        <ele>1027.447215</ele>
        <time>2022-10-18T21:13:59.580Z</time>
      </trkpt>
      <trkpt lat="43.91725" lon="7.39843">
        <ele>1026.610379</ele>
        <time>2022-10-18T21:15:04.885Z</time>
      </trkpt>
      <trkpt lat="43.91742" lon="7.39812">
        <ele>1026.276622</ele>
        <time>2022-10-18T21:15:38.775Z</time>
      </trkpt>
      <trkpt lat="43.91823" lon="7.39785">
        <ele>1025.276417</ele>
        <time>2022-10-18T21:17:21.367Z</time>
      </trkpt>
      <trkpt lat="43.91854" lon="7.39804">
        <ele>1024.724555</ele>
        <time>2022-10-18T21:18:03.832Z</time>
      </trkpt>
      <trkpt lat="43.91891" lon="7.39812">
        <ele>1023.572655</ele>
        <time>2022-10-18T21:18:50.725Z</time>
      </trkpt>
      <trkpt lat="43.91915" lon="7.39833">
        <ele>1022.675732</ele>
        <time>2022-10-18T21:19:27.690Z</time>
      </trkpt>
      <trkpt lat="43.91943" lon="7.39834">
        <ele>1021.786686</ele>
        <time>2022-10-18T21:20:04.104Z</time>
      </trkpt>
      <trkpt lat="43.91994" lon="7.3985">
        <ele>1020.163528</ele>
        <time>2022-10-18T21:21:10.576Z</time>
      </trkpt>
      <trkpt lat="43.92034" lon="7.39843">
        <ele>1018.816643</ele>
        <time>2022-10-18T21:22:02.370Z</time>
      </trkpt>
      <trkpt lat="43.92049" lon="7.39823">
        <ele>1018.037903</ele>
        <time>2022-10-18T21:22:28.397Z</time>
      </trkpt>
      <trkpt lat="43.92054" lon="7.39773">
        <ele>1016.658632</ele>
        <time>2022-10-18T21:23:15.028Z</time>
      </trkpt>
      <trkpt lat="43.92078" lon="7.39755">
        <ele>1015.633329</ele>
        <time>2022-10-18T21:23:50.285Z</time>
      </trkpt>
      <trkpt lat="43.92116" lon="7.39762">
        <ele>1014.181925</ele>
        <time>2022-10-18T21:24:40.079Z</time>
      </trkpt>
      <trkpt lat="43.92143" lon="7.39733">
        <ele>1012.871771</ele>
        <time>2022-10-18T21:25:24.784Z</time>
      </trkpt>
      <trkpt lat="43.92149" lon="7.39733">
        <ele>1012.660338</ele>
        <time>2022-10-18T21:25:31.888Z</time>
      </trkpt>
      <trkpt lat="43.92177" lon="7.39787">
        <ele>1009.381237</ele>
        <time>2022-10-18T21:26:36.020Z</time>
      </trkpt>
      <trkpt lat="43.92186" lon="7.39794">
        <ele>1008.696481</ele>
        <time>2022-10-18T21:26:49.065Z</time>
      </trkpt>
      <trkpt lat="43.92241" lon="7.3977">
        <ele>1004.617206</ele>
        <time>2022-10-18T21:28:08.726Z</time>
      </trkpt>
      <trkpt lat="43.92246" lon="7.3979">
        <ele>1003.556402</ele>
        <time>2022-10-18T21:28:29.653Z</time>
      </trkpt>
      <trkpt lat="43.92248" lon="7.39844">
        <ele>1000.804447</ele>
        <time>2022-10-18T21:29:24.647Z</time>
      </trkpt>
      <trkpt lat="43.92256" lon="7.39867">
        <ele>999.5261</ele>
        <time>2022-10-18T21:29:50.599Z</time>
      </trkpt>
      <trkpt lat="43.92279" lon="7.39892">
        <ele>997.445711</ele>
        <time>2022-10-18T21:30:32.479Z</time>
      </trkpt>
      <trkpt lat="43.92263" lon="7.39906">
        <ele>996.105276</ele>
        <time>2022-10-18T21:30:59.292Z</time>
      </trkpt>
      <trkpt lat="43.92252" lon="7.39928">
        <ele>994.776529</ele>
        <time>2022-10-18T21:31:25.706Z</time>
      </trkpt>
      <trkpt lat="43.92249" lon="7.39957">
        <ele>993.256079</ele>
        <time>2022-10-18T21:31:55.452Z</time>
      </trkpt>
      <trkpt lat="43.92279" lon="7.4009">
        <ele>986.790401</ele>
        <time>2022-10-18T21:34:09.945Z</time>
      </trkpt>
      <trkpt lat="43.92348" lon="7.40183">
        <ele>983.967892</ele>
        <time>2022-10-18T21:36:12.931Z</time>
      </trkpt>
      <trkpt lat="43.9238" lon="7.40196">
        <ele>982.999229</ele>
        <time>2022-10-18T21:36:54.394Z</time>
      </trkpt>
      <trkpt lat="43.92414" lon="7.40231">
        <ele>981.894676</ele>
        <time>2022-10-18T21:37:46.913Z</time>
      </trkpt>
      <trkpt lat="43.92413" lon="7.40276">
        <ele>981.610864</ele>
        <time>2022-10-18T21:38:27.372Z</time>
      </trkpt>
      <trkpt lat="43.92418" lon="7.40304">
        <ele>981.424386</ele>
        <time>2022-10-18T21:38:53.925Z</time>
      </trkpt>
      <trkpt lat="43.92435" lon="7.40324">
        <ele>981.228725</ele>
        <time>2022-10-18T21:39:21.513Z</time>
      </trkpt>
      <trkpt lat="43.92453" lon="7.40331">
        <ele>981.065981</ele>
        <time>2022-10-18T21:39:44.519Z</time>
      </trkpt>
      <trkpt lat="43.92509" lon="7.40377">
        <ele>980.491392</ele>
        <time>2022-10-18T21:41:04.341Z</time>
      </trkpt>
      <trkpt lat="43.92512" lon="7.40408">
        <ele>980.96085</ele>
        <time>2022-10-18T21:41:32.092Z</time>
      </trkpt>
      <trkpt lat="43.92517" lon="7.40452">
        <ele>983.142199</ele>
        <time>2022-10-18T21:42:13.022Z</time>
      </trkpt>
      <trkpt lat="43.92538" lon="7.40475">
        <ele>984.99586</ele>
        <time>2022-10-18T21:42:50.289Z</time>
      </trkpt>
      <trkpt lat="43.92546" lon="7.40477">
        <ele>985.52941</ele>
        <time>2022-10-18T21:43:01.431Z</time>
      </trkpt>
      <trkpt lat="43.92568" lon="7.40552">
        <ele>989.524603</ele>
        <time>2022-10-18T21:44:28.435Z</time>
      </trkpt>
      <trkpt lat="43.92595" lon="7.40606">
        <ele>992.936764</ele>
        <time>2022-10-18T21:45:48.951Z</time>
      </trkpt>
      <trkpt lat="43.92634" lon="7.40646">
        <ele>1000.257288</ele>
        <time>2022-10-18T21:47:29.119Z</time>
      </trkpt>
      <trkpt lat="43.92685" lon="7.40661">
        <ele>1008.243367</ele>
        <time>2022-10-18T21:49:18.348Z</time>
      </trkpt>
      <trkpt lat="43.92726" lon="7.40682">
        <ele>1014.855516</ele>
        <time>2022-10-18T21:50:47.441Z</time>
      </trkpt>
      <trkpt lat="43.92758" lon="7.40693">
        <ele>1019.893644</ele>
        <time>2022-10-18T21:51:55.179Z</time>
      </trkpt>
      <trkpt lat="43.92773" lon="7.40689">
        <ele>1021.311176</ele>
        <time>2022-10-18T21:52:24.767Z</time>
      </trkpt>
      <trkpt lat="43.92803" lon="7.40669">
        <ele>1024.228559</ele>
        <time>2022-10-18T21:53:28.443Z</time>
      </trkpt>
      <trkpt lat="43.92827" lon="7.40567">
        <ele>1030.934028</ele>
        <time>2022-10-18T21:55:34.898Z</time>
      </trkpt>
      <trkpt lat="43.9286" lon="7.40513">
        <ele>1035.372105</ele>
        <time>2022-10-18T21:56:42.337Z</time>
      </trkpt>
      <trkpt lat="43.92898" lon="7.40501">
        <ele>1033.046534</ele>
        <time>2022-10-18T21:57:32.298Z</time>
      </trkpt>
      <trkpt lat="43.92907" lon="7.40479">
        <ele>1031.626701</ele>
        <time>2022-10-18T21:57:56.454Z</time>
      </trkpt>
      <trkpt lat="43.92911" lon="7.40434">
        <ele>1029.140864</ele>
        <time>2022-10-18T21:58:40.425Z</time>
      </trkpt>
      <trkpt lat="43.92917" lon="7.40424">
        <ele>1028.434143</ele>
        <time>2022-10-18T21:58:53.214Z</time>
      </trkpt>
      <trkpt lat="43.92944" lon="7.40392">
        <ele>1025.731462</ele>
        <time>2022-10-18T21:59:43.077Z</time>
      </trkpt>
      <trkpt lat="43.92989" lon="7.40373">
        <ele>1022.08691</ele>
        <time>2022-10-18T22:00:54.775Z</time>
      </trkpt>
      <trkpt lat="43.93015" lon="7.40353">
        <ele>1016.683546</ele>
        <time>2022-10-18T22:01:40.142Z</time>
      </trkpt>
      <trkpt lat="43.93038" lon="7.40314">
        <ele>1009.673765</ele>
        <time>2022-10-18T22:02:42.005Z</time>
      </trkpt>
      <trkpt lat="43.93044" lon="7.40312">
        <ele>1008.311305</ele>
        <time>2022-10-18T22:02:54.419Z</time>
      </trkpt>
      <trkpt lat="43.93084" lon="7.40331">
        <ele>1000.11856</ele>
        <time>2022-10-18T22:04:13.232Z</time>
      </trkpt>
      <trkpt lat="43.93113" lon="7.40397">
        <ele>989.521789</ele>
        <time>2022-10-18T22:05:53.511Z</time>
      </trkpt>
      <trkpt lat="43.93183" lon="7.4048">
        <ele>974.868055</ele>
        <time>2022-10-18T22:08:27.290Z</time>
      </trkpt>
      <trkpt lat="43.93231" lon="7.40518">
        <ele>966.338729</ele>
        <time>2022-10-18T22:09:52.347Z</time>
      </trkpt>
      <trkpt lat="43.93243" lon="7.4052">
        <ele>964.426644</ele>
        <time>2022-10-18T22:10:10.608Z</time>
      </trkpt>
      <trkpt lat="43.93336" lon="7.40488">
        <ele>952.681071</ele>
        <time>2022-10-18T22:12:27.274Z</time>
      </trkpt>
      <trkpt lat="43.93392" lon="7.40498">
        <ele>946.60095</ele>
        <time>2022-10-18T22:13:46.691Z</time>
      </trkpt>
      <trkpt lat="43.93439" lon="7.40496">
        <ele>941.474136</ele>
        <time>2022-10-18T22:14:56.487Z</time>
      </trkpt>
      <trkpt lat="43.93469" lon="7.40512">
        <ele>937.33821</ele>
        <time>2022-10-18T22:15:45.321Z</time>
      </trkpt>
      <trkpt lat="43.93556" lon="7.40616">
        <ele>921.395945</ele>
        <time>2022-10-18T22:18:41.848Z</time>
      </trkpt>
      <trkpt lat="43.93632" lon="7.40692">
        <ele>908.55729</ele>
        <time>2022-10-18T22:21:04.054Z</time>
      </trkpt>
      <trkpt lat="43.93635" lon="7.40708">
        <ele>906.985111</ele>
        <time>2022-10-18T22:21:22.048Z</time>
      </trkpt>
      <trkpt lat="43.93639" lon="7.40718">
        <ele>905.880109</ele>
        <time>2022-10-18T22:21:34.304Z</time>
      </trkpt>
      <trkpt lat="43.9365" lon="7.40722">
        <ele>904.294339</ele>
        <time>2022-10-18T22:21:51.466Z</time>
      </trkpt>
      <trkpt lat="43.93712" lon="7.40806">
        <ele>892.800093</ele>
        <time>2022-10-18T22:23:59.366Z</time>
      </trkpt>
      <trkpt lat="43.93808" lon="7.40919">
        <ele>872.749483</ele>
        <time>2022-10-18T22:27:19.410Z</time>
      </trkpt>
      <trkpt lat="43.93827" lon="7.40971">
        <ele>865.897573</ele>
        <time>2022-10-18T22:28:27.275Z</time>
      </trkpt>
      <trkpt lat="43.93835" lon="7.41025">
        <ele>859.917302</ele>
        <time>2022-10-18T22:29:30.214Z</time>
      </trkpt>
      <trkpt lat="43.93839" lon="7.41034">
        <ele>859.026486</ele>
        <time>2022-10-18T22:29:42.138Z</time>
      </trkpt>
      <trkpt lat="43.93856" lon="7.41035">
        <ele>856.992446</ele>
        <time>2022-10-18T22:30:06.806Z</time>
      </trkpt>
      <trkpt lat="43.93857" lon="7.41041">
        <ele>856.440282</ele>
        <time>2022-10-18T22:30:14.234Z</time>
      </trkpt>
      <trkpt lat="43.93846" lon="7.41055">
        <ele>854.640624</ele>
        <time>2022-10-18T22:30:37.028Z</time>
      </trkpt>
      <trkpt lat="43.93864" lon="7.41071">
        <ele>851.989779</ele>
        <time>2022-10-18T22:31:08.873Z</time>
      </trkpt>
      <trkpt lat="43.93875" lon="7.41088">
        <ele>850.032316</ele>
        <time>2022-10-18T22:31:37.147Z</time>
      </trkpt>
      <trkpt lat="43.93851" lon="7.41105">
        <ele>846.859347</ele>
        <time>2022-10-18T22:32:13.871Z</time>
      </trkpt>
      <trkpt lat="43.93889" lon="7.41146">
        <ele>840.992769</ele>
        <time>2022-10-18T22:33:24.804Z</time>
      </trkpt>
      <trkpt lat="43.93885" lon="7.41159">
        <ele>839.739382</ele>
        <time>2022-10-18T22:33:37.469Z</time>
      </trkpt>
      <trkpt lat="43.93897" lon="7.41167">
        <ele>838.647289</ele>
        <time>2022-10-18T22:33:53.558Z</time>
      </trkpt>
      <trkpt lat="43.93902" lon="7.41161">
        <ele>838.115159</ele>
        <time>2022-10-18T22:34:02.135Z</time>
      </trkpt>
      <trkpt lat="43.93914" lon="7.41168">
        <ele>837.089596</ele>
        <time>2022-10-18T22:34:22.478Z</time>
      </trkpt>
      <trkpt lat="43.93911" lon="7.41176">
        <ele>836.585155</ele>
        <time>2022-10-18T22:34:30.758Z</time>
      </trkpt>
      <trkpt lat="43.93926" lon="7.41176">
        <ele>835.361891</ele>
        <time>2022-10-18T22:34:49.807Z</time>
      </trkpt>
      <trkpt lat="43.93919" lon="7.41183">
        <ele>834.64269</ele>
        <time>2022-10-18T22:35:06.252Z</time>
      </trkpt>
      <trkpt lat="43.93947" lon="7.41164">
        <ele>832.073478</ele>
        <time>2022-10-18T22:35:47.079Z</time>
      </trkpt>
      <trkpt lat="43.93947" lon="7.41148">
        <ele>831.157545</ele>
        <time>2022-10-18T22:36:04.659Z</time>
      </trkpt>
      <trkpt lat="43.9398" lon="7.41134">
        <ele>828.299329</ele>
        <time>2022-10-18T22:36:51.827Z</time>
      </trkpt>
      <trkpt lat="43.93979" lon="7.41116">
        <ele>827.222898</ele>
        <time>2022-10-18T22:37:08.059Z</time>
      </trkpt>
      <trkpt lat="43.93985" lon="7.41095">
        <ele>825.919305</ele>
        <time>2022-10-18T22:37:31.162Z</time>
      </trkpt>
      <trkpt lat="43.93992" lon="7.41107">
        <ele>824.952006</ele>
        <time>2022-10-18T22:37:51.391Z</time>
      </trkpt>
      <trkpt lat="43.93995" lon="7.41126">
        <ele>823.260596</ele>
        <time>2022-10-18T22:38:09.240Z</time>
      </trkpt>
      <trkpt lat="43.94004" lon="7.41133">
        <ele>822.068046</ele>
        <time>2022-10-18T22:38:25.574Z</time>
      </trkpt>
      <trkpt lat="43.94011" lon="7.41122">
        <ele>820.792485</ele>
        <time>2022-10-18T22:38:44.905Z</time>
      </trkpt>
      <trkpt lat="43.94032" lon="7.41121">
        <ele>818.254895</ele>
        <time>2022-10-18T22:39:11.874Z</time>
      </trkpt>
      <trkpt lat="43.9401" lon="7.41106">
        <ele>815.243054</ele>
        <time>2022-10-18T22:39:49.410Z</time>
      </trkpt>
      <trkpt lat="43.94012" lon="7.41094">
        <ele>814.149562</ele>
        <time>2022-10-18T22:40:01.998Z</time>
      </trkpt>
      <trkpt lat="43.94044" lon="7.41111">
        <ele>809.926234</ele>
        <time>2022-10-18T22:40:55.389Z</time>
      </trkpt>
      <trkpt lat="43.94052" lon="7.41131">
        <ele>807.928776</ele>
        <time>2022-10-18T22:41:23.464Z</time>
      </trkpt>
      <trkpt lat="43.94059" lon="7.41128">
        <ele>807.032981</ele>
        <time>2022-10-18T22:41:34.319Z</time>
      </trkpt>
      <trkpt lat="43.94066" lon="7.41137">
        <ele>805.922594</ele>
        <time>2022-10-18T22:41:48.375Z</time>
      </trkpt>
      <trkpt lat="43.94083" lon="7.41137">
        <ele>803.883283</ele>
        <time>2022-10-18T22:42:13.697Z</time>
      </trkpt>
      <trkpt lat="43.94101" lon="7.41112">
        <ele>803.165711</ele>
        <time>2022-10-18T22:42:50.410Z</time>
      </trkpt>
      <trkpt lat="43.94104" lon="7.41122">
        <ele>803.165711</ele>
        <time>2022-10-18T22:43:02.085Z</time>
      </trkpt>
      <trkpt lat="43.941" lon="7.4114">
        <ele>803.165711</ele>
        <time>2022-10-18T22:43:20.514Z</time>
      </trkpt>
      <trkpt lat="43.94127" lon="7.41209">
        <ele>803.165711</ele>
        <time>2022-10-18T22:44:44.544Z</time>
      </trkpt>
      <trkpt lat="43.94114" lon="7.41216">
        <ele>803.165711</ele>
        <time>2022-10-18T22:45:04.211Z</time>
      </trkpt>
      <trkpt lat="43.9411" lon="7.41233">
        <ele>803.165711</ele>
        <time>2022-10-18T22:45:23.238Z</time>
      </trkpt>
      <trkpt lat="43.94109" lon="7.41254">
        <ele>803.165711</ele>
        <time>2022-10-18T22:45:42.624Z</time>
      </trkpt>
    </trkseg>
  </trk>
</gpx>